sensor_id;sensor_type;location;lat;lon;timestamp;pressure;altitude;pressure_sealevel;temperature
22828;BMP180;11580;52.562;13.418;2023-08-21T00:01:45;101366.00;;;24.70
22828;BMP180;11580;52.562;13.418;2023-08-21T00:04:12;101356.00;;;24.60
22828;BMP180;11580;52.562;13.418;2023-08-21T00:06:40;101360.00;;;24.60
22828;BMP180;11580;52.562;13.418;2023-08-21T00:09:07;101355.00;;;24.60
22828;BMP180;11580;52.562;13.418;2023-08-21T00:11:35;101351.00;;;24.50
22828;BMP180;11580;52.562;13.418;2023-08-21T00:14:02;101356.00;;;24.50
22828;BMP180;11580;52.562;13.418;2023-08-21T00:16:29;101358.00;;;24.50
22828;BMP180;11580;52.562;13.418;2023-08-21T00:18:56;101345.00;;;24.50
22828;BMP180;11580;52.562;13.418;2023-08-21T00:21:24;101343.00;;;24.40
22828;BMP180;11580;52.562;13.418;2023-08-21T00:23:52;101355.00;;;24.40
22828;BMP180;11580;52.562;13.418;2023-08-21T00:26:19;101349.00;;;24.40
22828;BMP180;11580;52.562;13.418;2023-08-21T00:28:47;101348.00;;;24.40
22828;BMP180;11580;52.562;13.418;2023-08-21T00:31:14;101351.00;;;24.30
22828;BMP180;11580;52.562;13.418;2023-08-21T00:33:41;101356.00;;;24.30
22828;BMP180;11580;52.562;13.418;2023-08-21T00:36:08;101350.00;;;24.30
22828;BMP180;11580;52.562;13.418;2023-08-21T00:38:36;101348.00;;;24.30
22828;BMP180;11580;52.562;13.418;2023-08-21T00:41:04;101355.00;;;24.30
22828;BMP180;11580;52.562;13.418;2023-08-21T00:43:32;101348.00;;;24.30
22828;BMP180;11580;52.562;13.418;2023-08-21T00:45:59;101350.00;;;24.20
22828;BMP180;11580;52.562;13.418;2023-08-21T00:48:27;101355.00;;;24.20
22828;BMP180;11580;52.562;13.418;2023-08-21T00:50:54;101350.00;;;24.20
22828;BMP180;11580;52.562;13.418;2023-08-21T00:53:22;101347.00;;;24.20
22828;BMP180;11580;52.562;13.418;2023-08-21T00:55:50;101349.00;;;24.20
22828;BMP180;11580;52.562;13.418;2023-08-21T00:58:18;101357.00;;;24.20
22828;BMP180;11580;52.562;13.418;2023-08-21T01:00:48;101342.00;;;24.20
22828;BMP180;11580;52.562;13.418;2023-08-21T01:03:17;101346.00;;;24.20
22828;BMP180;11580;52.562;13.418;2023-08-21T01:05:44;101344.00;;;24.10
22828;BMP180;11580;52.562;13.418;2023-08-21T01:08:20;101347.00;;;24.10
22828;BMP180;11580;52.562;13.418;2023-08-21T01:10:54;101349.00;;;24.10
22828;BMP180;11580;52.562;13.418;2023-08-21T01:13:43;101342.00;;;24.10
22828;BMP180;11580;52.562;13.418;2023-08-21T01:16:13;101345.00;;;24.10
22828;BMP180;11580;52.562;13.418;2023-08-21T01:18:43;101345.00;;;24.10
22828;BMP180;11580;52.562;13.418;2023-08-21T01:21:12;101345.00;;;24.10
22828;BMP180;11580;52.562;13.418;2023-08-21T01:24:01;101342.00;;;24.10
22828;BMP180;11580;52.562;13.418;2023-08-21T01:26:28;101342.00;;;24.10
22828;BMP180;11580;52.562;13.418;2023-08-21T01:28:55;101340.00;;;24.10
22828;BMP180;11580;52.562;13.418;2023-08-21T01:31:30;101346.00;;;24.20
22828;BMP180;11580;52.562;13.418;2023-08-21T01:34:02;101338.00;;;24.20
22828;BMP180;11580;52.562;13.418;2023-08-21T01:36:31;101332.00;;;24.20
22828;BMP180;11580;52.562;13.418;2023-08-21T01:39:01;101332.00;;;24.30
22828;BMP180;11580;52.562;13.418;2023-08-21T01:41:28;101339.00;;;24.30
22828;BMP180;11580;52.562;13.418;2023-08-21T01:43:55;101328.00;;;24.30
22828;BMP180;11580;52.562;13.418;2023-08-21T01:46:22;101329.00;;;24.40
22828;BMP180;11580;52.562;13.418;2023-08-21T01:48:50;101330.00;;;24.40
22828;BMP180;11580;52.562;13.418;2023-08-21T01:51:17;101316.00;;;24.50
22828;BMP180;11580;52.562;13.418;2023-08-21T01:53:44;101306.00;;;24.50
22828;BMP180;11580;52.562;13.418;2023-08-21T01:56:13;101305.00;;;24.60
22828;BMP180;11580;52.562;13.418;2023-08-21T01:58:40;101311.00;;;24.60
22828;BMP180;11580;52.562;13.418;2023-08-21T02:01:07;101323.00;;;24.70
22828;BMP180;11580;52.562;13.418;2023-08-21T02:03:34;101324.00;;;24.70
22828;BMP180;11580;52.562;13.418;2023-08-21T02:06:02;101320.00;;;24.80
22828;BMP180;11580;52.562;13.418;2023-08-21T02:08:33;101321.00;;;24.80
22828;BMP180;11580;52.562;13.418;2023-08-21T02:11:00;101312.00;;;24.90
22828;BMP180;11580;52.562;13.418;2023-08-21T02:13:30;101316.00;;;24.90
22828;BMP180;11580;52.562;13.418;2023-08-21T02:15:59;101322.00;;;24.90
22828;BMP180;11580;52.562;13.418;2023-08-21T02:18:26;101320.00;;;24.90
22828;BMP180;11580;52.562;13.418;2023-08-21T02:20:53;101316.00;;;24.90
22828;BMP180;11580;52.562;13.418;2023-08-21T02:23:20;101315.00;;;24.90
22828;BMP180;11580;52.562;13.418;2023-08-21T02:25:47;101311.00;;;24.90
22828;BMP180;11580;52.562;13.418;2023-08-21T02:28:17;101319.00;;;24.90
22828;BMP180;11580;52.562;13.418;2023-08-21T02:30:48;101313.00;;;24.90
22828;BMP180;11580;52.562;13.418;2023-08-21T02:33:15;101313.00;;;24.90
22828;BMP180;11580;52.562;13.418;2023-08-21T02:35:43;101314.00;;;24.90
22828;BMP180;11580;52.562;13.418;2023-08-21T02:38:10;101309.00;;;24.90
22828;BMP180;11580;52.562;13.418;2023-08-21T02:40:38;101311.00;;;24.90
22828;BMP180;11580;52.562;13.418;2023-08-21T02:43:05;101315.00;;;24.90
22828;BMP180;11580;52.562;13.418;2023-08-21T02:45:32;101318.00;;;24.80
22828;BMP180;11580;52.562;13.418;2023-08-21T02:48:01;101313.00;;;24.80
22828;BMP180;11580;52.562;13.418;2023-08-21T02:50:28;101315.00;;;24.80
22828;BMP180;11580;52.562;13.418;2023-08-21T02:52:55;101315.00;;;24.90
22828;BMP180;11580;52.562;13.418;2023-08-21T02:55:22;101313.00;;;24.90
22828;BMP180;11580;52.562;13.418;2023-08-21T02:57:50;101315.00;;;24.90
22828;BMP180;11580;52.562;13.418;2023-08-21T03:00:17;101317.00;;;24.90
22828;BMP180;11580;52.562;13.418;2023-08-21T03:02:46;101306.00;;;25.00
22828;BMP180;11580;52.562;13.418;2023-08-21T03:05:14;101321.00;;;25.00
22828;BMP180;11580;52.562;13.418;2023-08-21T03:07:41;101322.00;;;25.10
22828;BMP180;11580;52.562;13.418;2023-08-21T03:10:09;101320.00;;;25.10
22828;BMP180;11580;52.562;13.418;2023-08-21T03:12:36;101317.00;;;25.10
22828;BMP180;11580;52.562;13.418;2023-08-21T03:15:04;101318.00;;;25.20
22828;BMP180;11580;52.562;13.418;2023-08-21T03:17:32;101319.00;;;25.20
22828;BMP180;11580;52.562;13.418;2023-08-21T03:20:00;101322.00;;;25.20
22828;BMP180;11580;52.562;13.418;2023-08-21T03:22:28;101313.00;;;25.30
22828;BMP180;11580;52.562;13.418;2023-08-21T03:24:57;101308.00;;;25.30
22828;BMP180;11580;52.562;13.418;2023-08-21T03:27:25;101314.00;;;25.30
22828;BMP180;11580;52.562;13.418;2023-08-21T03:29:52;101305.00;;;25.30
22828;BMP180;11580;52.562;13.418;2023-08-21T03:32:19;101299.00;;;25.30
22828;BMP180;11580;52.562;13.418;2023-08-21T03:34:47;101308.00;;;25.40
22828;BMP180;11580;52.562;13.418;2023-08-21T03:37:14;101303.00;;;25.30
22828;BMP180;11580;52.562;13.418;2023-08-21T03:39:43;101304.00;;;25.40
22828;BMP180;11580;52.562;13.418;2023-08-21T03:42:11;101307.00;;;25.40
22828;BMP180;11580;52.562;13.418;2023-08-21T03:44:39;101306.00;;;25.40
22828;BMP180;11580;52.562;13.418;2023-08-21T03:47:07;101314.00;;;25.40
22828;BMP180;11580;52.562;13.418;2023-08-21T03:49:43;101315.00;;;25.40
22828;BMP180;11580;52.562;13.418;2023-08-21T03:52:10;101320.00;;;25.40
22828;BMP180;11580;52.562;13.418;2023-08-21T03:54:37;101318.00;;;25.30
22828;BMP180;11580;52.562;13.418;2023-08-21T03:57:06;101318.00;;;25.30
22828;BMP180;11580;52.562;13.418;2023-08-21T03:59:33;101329.00;;;25.30
22828;BMP180;11580;52.562;13.418;2023-08-21T04:02:00;101323.00;;;25.30
22828;BMP180;11580;52.562;13.418;2023-08-21T04:04:28;101323.00;;;25.20
22828;BMP180;11580;52.562;13.418;2023-08-21T04:06:55;101327.00;;;25.20
22828;BMP180;11580;52.562;13.418;2023-08-21T04:09:22;101324.00;;;25.20
22828;BMP180;11580;52.562;13.418;2023-08-21T04:11:50;101325.00;;;25.20
22828;BMP180;11580;52.562;13.418;2023-08-21T04:14:18;101327.00;;;25.20
22828;BMP180;11580;52.562;13.418;2023-08-21T04:16:45;101334.00;;;25.20
22828;BMP180;11580;52.562;13.418;2023-08-21T04:19:13;101328.00;;;25.20
22828;BMP180;11580;52.562;13.418;2023-08-21T04:21:40;101333.00;;;25.20
22828;BMP180;11580;52.562;13.418;2023-08-21T04:24:07;101341.00;;;25.20
22828;BMP180;11580;52.562;13.418;2023-08-21T04:26:34;101337.00;;;25.20
22828;BMP180;11580;52.562;13.418;2023-08-21T04:29:01;101335.00;;;25.30
22828;BMP180;11580;52.562;13.418;2023-08-21T04:31:32;101337.00;;;25.30
22828;BMP180;11580;52.562;13.418;2023-08-21T04:33:59;101334.00;;;25.30
22828;BMP180;11580;52.562;13.418;2023-08-21T04:36:27;101346.00;;;25.30
22828;BMP180;11580;52.562;13.418;2023-08-21T04:38:54;101346.00;;;25.30
22828;BMP180;11580;52.562;13.418;2023-08-21T04:41:21;101356.00;;;25.40
22828;BMP180;11580;52.562;13.418;2023-08-21T04:43:49;101360.00;;;25.40
22828;BMP180;11580;52.562;13.418;2023-08-21T04:46:17;101349.00;;;25.40
22828;BMP180;11580;52.562;13.418;2023-08-21T04:48:47;101351.00;;;25.50
22828;BMP180;11580;52.562;13.418;2023-08-21T04:51:14;101352.00;;;25.60
22828;BMP180;11580;52.562;13.418;2023-08-21T04:53:41;101342.00;;;25.60
22828;BMP180;11580;52.562;13.418;2023-08-21T04:56:13;101355.00;;;25.70
22828;BMP180;11580;52.562;13.418;2023-08-21T04:58:40;101360.00;;;25.80
22828;BMP180;11580;52.562;13.418;2023-08-21T05:01:08;101366.00;;;25.90
22828;BMP180;11580;52.562;13.418;2023-08-21T05:03:42;101372.00;;;25.90
22828;BMP180;11580;52.562;13.418;2023-08-21T05:06:11;101373.00;;;26.00
22828;BMP180;11580;52.562;13.418;2023-08-21T05:08:38;101373.00;;;26.10
22828;BMP180;11580;52.562;13.418;2023-08-21T05:11:07;101375.00;;;26.20
22828;BMP180;11580;52.562;13.418;2023-08-21T05:13:36;101370.00;;;26.20
22828;BMP180;11580;52.562;13.418;2023-08-21T05:16:06;101378.00;;;26.30
22828;BMP180;11580;52.562;13.418;2023-08-21T05:18:37;101370.00;;;26.40
22828;BMP180;11580;52.562;13.418;2023-08-21T05:21:04;101380.00;;;26.40
22828;BMP180;11580;52.562;13.418;2023-08-21T05:23:33;101382.00;;;26.50
22828;BMP180;11580;52.562;13.418;2023-08-21T05:26:04;101383.00;;;26.60
22828;BMP180;11580;52.562;13.418;2023-08-21T05:28:31;101368.00;;;26.70
22828;BMP180;11580;52.562;13.418;2023-08-21T05:30:59;101378.00;;;26.80
22828;BMP180;11580;52.562;13.418;2023-08-21T05:33:31;101375.00;;;26.90
22828;BMP180;11580;52.562;13.418;2023-08-21T05:35:58;101371.00;;;27.00
22828;BMP180;11580;52.562;13.418;2023-08-21T05:38:25;101372.00;;;27.10
22828;BMP180;11580;52.562;13.418;2023-08-21T05:40:54;101375.00;;;27.30
22828;BMP180;11580;52.562;13.418;2023-08-21T05:43:21;101372.00;;;27.40
22828;BMP180;11580;52.562;13.418;2023-08-21T05:45:48;101375.00;;;27.60
22828;BMP180;11580;52.562;13.418;2023-08-21T05:48:16;101376.00;;;27.70
22828;BMP180;11580;52.562;13.418;2023-08-21T05:50:44;101380.00;;;27.80
22828;BMP180;11580;52.562;13.418;2023-08-21T05:53:11;101382.00;;;28.00
22828;BMP180;11580;52.562;13.418;2023-08-21T05:55:38;101382.00;;;28.10
22828;BMP180;11580;52.562;13.418;2023-08-21T05:58:07;101395.00;;;28.20
22828;BMP180;11580;52.562;13.418;2023-08-21T06:00:34;101385.00;;;28.30
22828;BMP180;11580;52.562;13.418;2023-08-21T06:03:03;101387.00;;;28.40
22828;BMP180;11580;52.562;13.418;2023-08-21T06:05:49;101393.00;;;28.50
22828;BMP180;11580;52.562;13.418;2023-08-21T06:08:16;101387.00;;;28.50
22828;BMP180;11580;52.562;13.418;2023-08-21T06:10:44;101370.00;;;28.60
22828;BMP180;11580;52.562;13.418;2023-08-21T06:13:12;101392.00;;;28.60
22828;BMP180;11580;52.562;13.418;2023-08-21T06:15:43;101382.00;;;28.70
22828;BMP180;11580;52.562;13.418;2023-08-21T06:18:11;101393.00;;;28.70
22828;BMP180;11580;52.562;13.418;2023-08-21T06:20:38;101400.00;;;28.70
22828;BMP180;11580;52.562;13.418;2023-08-21T06:23:05;101397.00;;;28.70
22828;BMP180;11580;52.562;13.418;2023-08-21T06:25:33;101417.00;;;28.70
22828;BMP180;11580;52.562;13.418;2023-08-21T06:28:00;101391.00;;;28.70
22828;BMP180;11580;52.562;13.418;2023-08-21T06:30:29;101416.00;;;28.80
22828;BMP180;11580;52.562;13.418;2023-08-21T06:32:56;101420.00;;;28.80
22828;BMP180;11580;52.562;13.418;2023-08-21T06:35:25;101418.00;;;28.80
22828;BMP180;11580;52.562;13.418;2023-08-21T06:37:53;101415.00;;;28.80
22828;BMP180;11580;52.562;13.418;2023-08-21T06:40:21;101416.00;;;28.80
22828;BMP180;11580;52.562;13.418;2023-08-21T06:42:48;101424.00;;;28.80
22828;BMP180;11580;52.562;13.418;2023-08-21T06:45:20;101421.00;;;28.80
22828;BMP180;11580;52.562;13.418;2023-08-21T06:47:48;101417.00;;;28.70
22828;BMP180;11580;52.562;13.418;2023-08-21T06:50:17;101423.00;;;28.80
22828;BMP180;11580;52.562;13.418;2023-08-21T06:52:44;101426.00;;;28.80
22828;BMP180;11580;52.562;13.418;2023-08-21T06:55:11;101423.00;;;28.80
22828;BMP180;11580;52.562;13.418;2023-08-21T06:57:38;101427.00;;;28.90
22828;BMP180;11580;52.562;13.418;2023-08-21T07:00:07;101424.00;;;29.00
22828;BMP180;11580;52.562;13.418;2023-08-21T07:02:35;101417.00;;;29.00
22828;BMP180;11580;52.562;13.418;2023-08-21T07:05:04;101423.00;;;29.10
22828;BMP180;11580;52.562;13.418;2023-08-21T07:07:31;101425.00;;;29.10
22828;BMP180;11580;52.562;13.418;2023-08-21T07:09:58;101417.00;;;29.20
22828;BMP180;11580;52.562;13.418;2023-08-21T07:12:26;101416.00;;;29.30
22828;BMP180;11580;52.562;13.418;2023-08-21T07:14:53;101413.00;;;29.30
22828;BMP180;11580;52.562;13.418;2023-08-21T07:17:20;101414.00;;;29.40
22828;BMP180;11580;52.562;13.418;2023-08-21T07:19:47;101422.00;;;29.50
22828;BMP180;11580;52.562;13.418;2023-08-21T07:22:19;101427.00;;;29.50
22828;BMP180;11580;52.562;13.418;2023-08-21T07:24:47;101424.00;;;29.60
22828;BMP180;11580;52.562;13.418;2023-08-21T07:27:14;101434.00;;;29.60
22828;BMP180;11580;52.562;13.418;2023-08-21T07:29:41;101433.00;;;29.50
22828;BMP180;11580;52.562;13.418;2023-08-21T07:32:09;101432.00;;;29.50
22828;BMP180;11580;52.562;13.418;2023-08-21T07:34:36;101435.00;;;29.40
22828;BMP180;11580;52.562;13.418;2023-08-21T07:37:03;101438.00;;;29.30
22828;BMP180;11580;52.562;13.418;2023-08-21T07:39:32;101437.00;;;29.30
22828;BMP180;11580;52.562;13.418;2023-08-21T07:41:59;101444.00;;;29.20
22828;BMP180;11580;52.562;13.418;2023-08-21T07:44:27;101444.00;;;29.20
22828;BMP180;11580;52.562;13.418;2023-08-21T07:46:54;101459.00;;;29.10
22828;BMP180;11580;52.562;13.418;2023-08-21T07:49:21;101444.00;;;29.00
22828;BMP180;11580;52.562;13.418;2023-08-21T07:51:48;101454.00;;;29.00
22828;BMP180;11580;52.562;13.418;2023-08-21T07:54:15;101444.00;;;28.90
22828;BMP180;11580;52.562;13.418;2023-08-21T07:56:44;101447.00;;;28.90
22828;BMP180;11580;52.562;13.418;2023-08-21T07:59:11;101452.00;;;29.00
22828;BMP180;11580;52.562;13.418;2023-08-21T08:01:38;101445.00;;;29.00
22828;BMP180;11580;52.562;13.418;2023-08-21T08:04:06;101447.00;;;29.10
22828;BMP180;11580;52.562;13.418;2023-08-21T08:06:33;101461.00;;;29.30
22828;BMP180;11580;52.562;13.418;2023-08-21T08:09:00;101450.00;;;29.40
22828;BMP180;11580;52.562;13.418;2023-08-21T08:11:29;101449.00;;;29.50
22828;BMP180;11580;52.562;13.418;2023-08-21T08:13:57;101455.00;;;29.60
22828;BMP180;11580;52.562;13.418;2023-08-21T08:16:25;101457.00;;;29.60
22828;BMP180;11580;52.562;13.418;2023-08-21T08:18:52;101456.00;;;29.60
22828;BMP180;11580;52.562;13.418;2023-08-21T08:21:19;101449.00;;;29.70
22828;BMP180;11580;52.562;13.418;2023-08-21T08:23:46;101456.00;;;29.70
22828;BMP180;11580;52.562;13.418;2023-08-21T08:26:14;101451.00;;;29.60
22828;BMP180;11580;52.562;13.418;2023-08-21T08:28:42;101453.00;;;29.60
22828;BMP180;11580;52.562;13.418;2023-08-21T08:31:16;101448.00;;;29.70
22828;BMP180;11580;52.562;13.418;2023-08-21T08:33:43;101457.00;;;29.70
22828;BMP180;11580;52.562;13.418;2023-08-21T08:36:10;101455.00;;;29.60
22828;BMP180;11580;52.562;13.418;2023-08-21T08:38:38;101462.00;;;29.60
22828;BMP180;11580;52.562;13.418;2023-08-21T08:41:14;101457.00;;;29.60
22828;BMP180;11580;52.562;13.418;2023-08-21T08:43:45;101463.00;;;29.50
22828;BMP180;11580;52.562;13.418;2023-08-21T08:46:14;101451.00;;;29.50
22828;BMP180;11580;52.562;13.418;2023-08-21T08:48:42;101459.00;;;29.50
22828;BMP180;11580;52.562;13.418;2023-08-21T08:51:11;101463.00;;;29.50
22828;BMP180;11580;52.562;13.418;2023-08-21T08:53:39;101459.00;;;29.50
22828;BMP180;11580;52.562;13.418;2023-08-21T08:56:06;101468.00;;;29.60
22828;BMP180;11580;52.562;13.418;2023-08-21T08:58:33;101458.00;;;29.70
22828;BMP180;11580;52.562;13.418;2023-08-21T09:01:01;101458.00;;;29.80
22828;BMP180;11580;52.562;13.418;2023-08-21T09:03:29;101460.00;;;30.00
22828;BMP180;11580;52.562;13.418;2023-08-21T09:05:57;101456.00;;;30.30
22828;BMP180;11580;52.562;13.418;2023-08-21T09:08:26;101463.00;;;30.50
22828;BMP180;11580;52.562;13.418;2023-08-21T09:10:54;101457.00;;;30.60
22828;BMP180;11580;52.562;13.418;2023-08-21T09:13:21;101455.00;;;30.90
22828;BMP180;11580;52.562;13.418;2023-08-21T09:15:54;101456.00;;;31.00
22828;BMP180;11580;52.562;13.418;2023-08-21T09:18:22;101449.00;;;31.20
22828;BMP180;11580;52.562;13.418;2023-08-21T09:20:50;101448.00;;;31.30
22828;BMP180;11580;52.562;13.418;2023-08-21T09:23:19;101446.00;;;31.40
22828;BMP180;11580;52.562;13.418;2023-08-21T09:25:47;101459.00;;;31.50
22828;BMP180;11580;52.562;13.418;2023-08-21T09:28:19;101461.00;;;31.60
22828;BMP180;11580;52.562;13.418;2023-08-21T09:30:49;101458.00;;;31.60
22828;BMP180;11580;52.562;13.418;2023-08-21T09:33:20;101452.00;;;31.70
22828;BMP180;11580;52.562;13.418;2023-08-21T09:35:51;101463.00;;;31.80
22828;BMP180;11580;52.562;13.418;2023-08-21T09:38:19;101452.00;;;31.70
22828;BMP180;11580;52.562;13.418;2023-08-21T09:40:51;101458.00;;;31.70
22828;BMP180;11580;52.562;13.418;2023-08-21T09:43:20;101459.00;;;31.70
22828;BMP180;11580;52.562;13.418;2023-08-21T09:45:48;101467.00;;;31.70
22828;BMP180;11580;52.562;13.418;2023-08-21T09:48:15;101466.00;;;31.80
22828;BMP180;11580;52.562;13.418;2023-08-21T09:50:43;101459.00;;;31.80
22828;BMP180;11580;52.562;13.418;2023-08-21T09:53:13;101460.00;;;31.80
22828;BMP180;11580;52.562;13.418;2023-08-21T09:55:41;101453.00;;;31.90
22828;BMP180;11580;52.562;13.418;2023-08-21T09:58:09;101457.00;;;32.00
22828;BMP180;11580;52.562;13.418;2023-08-21T10:00:37;101448.00;;;32.10
22828;BMP180;11580;52.562;13.418;2023-08-21T10:03:08;101452.00;;;32.10
22828;BMP180;11580;52.562;13.418;2023-08-21T10:05:39;101442.00;;;32.10
22828;BMP180;11580;52.562;13.418;2023-08-21T10:08:08;101454.00;;;32.00
22828;BMP180;11580;52.562;13.418;2023-08-21T10:10:38;101450.00;;;31.90
22828;BMP180;11580;52.562;13.418;2023-08-21T10:13:07;101463.00;;;31.80
22828;BMP180;11580;52.562;13.418;2023-08-21T10:15:37;101454.00;;;31.60
22828;BMP180;11580;52.562;13.418;2023-08-21T10:18:22;101451.00;;;31.60
22828;BMP180;11580;52.562;13.418;2023-08-21T10:20:51;101452.00;;;31.60
22828;BMP180;11580;52.562;13.418;2023-08-21T10:23:27;101455.00;;;31.70
22828;BMP180;11580;52.562;13.418;2023-08-21T10:25:57;101462.00;;;31.80
22828;BMP180;11580;52.562;13.418;2023-08-21T10:28:24;101457.00;;;31.90
22828;BMP180;11580;52.562;13.418;2023-08-21T10:30:52;101459.00;;;32.10
22828;BMP180;11580;52.562;13.418;2023-08-21T10:33:45;101450.00;;;32.20
22828;BMP180;11580;52.562;13.418;2023-08-21T10:36:13;101461.00;;;32.30
22828;BMP180;11580;52.562;13.418;2023-08-21T10:39:01;101451.00;;;32.40
22828;BMP180;11580;52.562;13.418;2023-08-21T10:41:30;101460.00;;;32.40
22828;BMP180;11580;52.562;13.418;2023-08-21T10:43:57;101457.00;;;32.30
22828;BMP180;11580;52.562;13.418;2023-08-21T10:46:26;101447.00;;;32.10
22828;BMP180;11580;52.562;13.418;2023-08-21T10:48:53;101457.00;;;32.00
22828;BMP180;11580;52.562;13.418;2023-08-21T10:51:20;101454.00;;;31.90
22828;BMP180;11580;52.562;13.418;2023-08-21T10:53:48;101455.00;;;31.80
22828;BMP180;11580;52.562;13.418;2023-08-21T10:56:15;101454.00;;;31.70
22828;BMP180;11580;52.562;13.418;2023-08-21T10:58:44;101464.00;;;31.70
22828;BMP180;11580;52.562;13.418;2023-08-21T11:01:13;101458.00;;;31.70
22828;BMP180;11580;52.562;13.418;2023-08-21T11:03:45;101466.00;;;31.80
22828;BMP180;11580;52.562;13.418;2023-08-21T11:06:13;101476.00;;;31.80
22828;BMP180;11580;52.562;13.418;2023-08-21T11:08:40;101469.00;;;31.90
22828;BMP180;11580;52.562;13.418;2023-08-21T11:11:10;101470.00;;;32.00
22828;BMP180;11580;52.562;13.418;2023-08-21T11:13:37;101468.00;;;32.00
22828;BMP180;11580;52.562;13.418;2023-08-21T11:16:06;101466.00;;;32.10
22828;BMP180;11580;52.562;13.418;2023-08-21T11:18:36;101479.00;;;32.10
22828;BMP180;11580;52.562;13.418;2023-08-21T11:21:05;101465.00;;;32.10
22828;BMP180;11580;52.562;13.418;2023-08-21T11:23:36;101471.00;;;32.10
22828;BMP180;11580;52.562;13.418;2023-08-21T11:26:04;101459.00;;;32.20
22828;BMP180;11580;52.562;13.418;2023-08-21T11:28:32;101461.00;;;32.20
22828;BMP180;11580;52.562;13.418;2023-08-21T11:30:59;101456.00;;;32.30
22828;BMP180;11580;52.562;13.418;2023-08-21T11:33:28;101461.00;;;32.40
22828;BMP180;11580;52.562;13.418;2023-08-21T11:35:56;101455.00;;;32.60
22828;BMP180;11580;52.562;13.418;2023-08-21T11:38:26;101465.00;;;32.70
22828;BMP180;11580;52.562;13.418;2023-08-21T11:40:56;101461.00;;;32.80
22828;BMP180;11580;52.562;13.418;2023-08-21T11:43:34;101458.00;;;32.90
22828;BMP180;11580;52.562;13.418;2023-08-21T11:46:03;101464.00;;;33.00
22828;BMP180;11580;52.562;13.418;2023-08-21T11:48:33;101468.00;;;33.00
22828;BMP180;11580;52.562;13.418;2023-08-21T11:51:01;101457.00;;;33.10
22828;BMP180;11580;52.562;13.418;2023-08-21T11:53:33;101458.00;;;33.10
22828;BMP180;11580;52.562;13.418;2023-08-21T11:56:01;101467.00;;;33.20
22828;BMP180;11580;52.562;13.418;2023-08-21T11:58:28;101464.00;;;33.20
22828;BMP180;11580;52.562;13.418;2023-08-21T12:01:03;101464.00;;;33.20
22828;BMP180;11580;52.562;13.418;2023-08-21T12:03:35;101469.00;;;33.20
22828;BMP180;11580;52.562;13.418;2023-08-21T12:06:06;101468.00;;;33.20
22828;BMP180;11580;52.562;13.418;2023-08-21T12:08:33;101471.00;;;33.20
22828;BMP180;11580;52.562;13.418;2023-08-21T12:11:00;101467.00;;;33.20
22828;BMP180;11580;52.562;13.418;2023-08-21T12:13:28;101476.00;;;33.20
22828;BMP180;11580;52.562;13.418;2023-08-21T12:15:55;101468.00;;;33.20
22828;BMP180;11580;52.562;13.418;2023-08-21T12:18:23;101473.00;;;33.20
22828;BMP180;11580;52.562;13.418;2023-08-21T12:20:51;101474.00;;;33.20
22828;BMP180;11580;52.562;13.418;2023-08-21T12:23:19;101462.00;;;33.20
22828;BMP180;11580;52.562;13.418;2023-08-21T12:25:46;101465.00;;;33.30
22828;BMP180;11580;52.562;13.418;2023-08-21T12:28:13;101457.00;;;33.30
22828;BMP180;11580;52.562;13.418;2023-08-21T12:30:40;101463.00;;;33.30
22828;BMP180;11580;52.562;13.418;2023-08-21T12:33:07;101450.00;;;33.20
22828;BMP180;11580;52.562;13.418;2023-08-21T12:35:34;101452.00;;;33.20
22828;BMP180;11580;52.562;13.418;2023-08-21T12:38:11;101455.00;;;33.20
22828;BMP180;11580;52.562;13.418;2023-08-21T12:40:39;101457.00;;;33.10
22828;BMP180;11580;52.562;13.418;2023-08-21T12:43:06;101455.00;;;33.10
22828;BMP180;11580;52.562;13.418;2023-08-21T12:45:34;101458.00;;;33.10
22828;BMP180;11580;52.562;13.418;2023-08-21T12:48:01;101470.00;;;33.10
22828;BMP180;11580;52.562;13.418;2023-08-21T12:50:29;101464.00;;;33.10
22828;BMP180;11580;52.562;13.418;2023-08-21T12:52:56;101454.00;;;33.10
22828;BMP180;11580;52.562;13.418;2023-08-21T12:55:25;101460.00;;;33.20
22828;BMP180;11580;52.562;13.418;2023-08-21T12:57:53;101460.00;;;33.20
22828;BMP180;11580;52.562;13.418;2023-08-21T13:00:20;101462.00;;;33.20
22828;BMP180;11580;52.562;13.418;2023-08-21T13:02:47;101462.00;;;33.20
22828;BMP180;11580;52.562;13.418;2023-08-21T13:05:14;101460.00;;;33.20
22828;BMP180;11580;52.562;13.418;2023-08-21T13:07:42;101465.00;;;33.20
22828;BMP180;11580;52.562;13.418;2023-08-21T13:10:09;101465.00;;;33.10
22828;BMP180;11580;52.562;13.418;2023-08-21T13:12:38;101466.00;;;33.10
22828;BMP180;11580;52.562;13.418;2023-08-21T13:15:06;101458.00;;;33.10
22828;BMP180;11580;52.562;13.418;2023-08-21T13:17:34;101468.00;;;33.00
22828;BMP180;11580;52.562;13.418;2023-08-21T13:20:01;101466.00;;;33.00
22828;BMP180;11580;52.562;13.418;2023-08-21T13:22:28;101465.00;;;32.90
22828;BMP180;11580;52.562;13.418;2023-08-21T13:24:55;101473.00;;;32.80
22828;BMP180;11580;52.562;13.418;2023-08-21T13:27:22;101469.00;;;32.80
22828;BMP180;11580;52.562;13.418;2023-08-21T13:29:51;101463.00;;;32.70
22828;BMP180;11580;52.562;13.418;2023-08-21T13:32:18;101466.00;;;32.70
22828;BMP180;11580;52.562;13.418;2023-08-21T13:34:45;101452.00;;;32.60
22828;BMP180;11580;52.562;13.418;2023-08-21T13:37:12;101453.00;;;32.60
22828;BMP180;11580;52.562;13.418;2023-08-21T13:39:39;101457.00;;;32.50
22828;BMP180;11580;52.562;13.418;2023-08-21T13:42:06;101453.00;;;32.50
22828;BMP180;11580;52.562;13.418;2023-08-21T13:44:34;101449.00;;;32.40
22828;BMP180;11580;52.562;13.418;2023-08-21T13:47:03;101446.00;;;32.30
22828;BMP180;11580;52.562;13.418;2023-08-21T13:49:30;101437.00;;;32.20
22828;BMP180;11580;52.562;13.418;2023-08-21T13:51:57;101428.00;;;32.10